Main page
METAR-TAF:

METAR-TAF

Airports :

Teniente Jorge Henrich Arauz Airport

Trinidad, Bolivia

latitude: 14-49S, longitude: 064-55W, elevation: 155 m

Current weather observation

The report was made 1 hour and 15 minutes ago, at 17:00 UTC
Calm wind
Temperature 24°C
Humidity 78%
Pressure 1017 hPa
Visibility 10 km or more
Scattered clouds at a height of 800 ft
Broken clouds at a height of 1500 ft

METAR: SLTR 221700Z 00000KT 9999 SCT008 BKN015 24/20 Q1017

Time: 14:15 (18:15 UTC)

Forecast

The report was made 2 hours and 15 minutes ago, at 16:00 UTC
Forecast valid from 22 at 18 UTC to 23 at 18 UTC
Wind 7 kt from the Southwest
Visibility 10 km or more
Scattered clouds at a height of 1000 ft
Broken clouds at a height of 1500 ft
Becoming
from 23 at 00 UTC to 23 at 02 UTC
Wind kt from the North
Scattered clouds at a height of 300 ft
Broken clouds at a height of 1100 ft

TAF: SLTR 221600Z 2218/2318 23007KT 9999 SCT010 BKN015 TX26/2220Z TN18 /2310Z BECMG 2300/2302 00000KT SCT003 BKN011

Weather observations and forecasts of more than 4000 airports (METAR and TAF reports).

The available stations are represented by yellow and red dots on the map.

Hover mouse over dot to see the name of the station.

Then click to see weather observations and forecasts.

To change the map : click on the green buttons with a black cross to zoom in, on the green button with a dash to zoom out, or on the green arrows for adjacent maps.


METAR-TAF: